sensor_id;sensor_type;location;lat;lon;timestamp;P1;durP1;ratioP1;P2;durP2;ratioP2
25129;SDS011;13308;50.860;13.664;2023-04-25T06:14:13;8.10;;;6.00;;
25129;SDS011;13308;50.860;13.664;2023-04-25T06:16:44;7.43;;;6.22;;
25129;SDS011;13308;50.860;13.664;2023-04-25T06:19:10;8.55;;;5.95;;
25129;SDS011;13308;50.860;13.664;2023-04-25T06:21:35;8.07;;;5.88;;
25129;SDS011;13308;50.860;13.664;2023-04-25T06:24:00;8.32;;;6.22;;
25129;SDS011;13308;50.860;13.664;2023-04-25T06:26:27;9.90;;;5.95;;
25129;SDS011;13308;50.860;13.664;2023-04-25T06:28:52;10.48;;;5.93;;
25129;SDS011;13308;50.860;13.664;2023-04-25T06:31:18;9.73;;;5.70;;
25129;SDS011;13308;50.860;13.664;2023-04-25T06:33:45;8.63;;;5.47;;
25129;SDS011;13308;50.860;13.664;2023-04-25T06:36:10;7.10;;;5.00;;
25129;SDS011;13308;50.860;13.664;2023-04-25T06:38:37;5.20;;;4.70;;
25129;SDS011;13308;50.860;13.664;2023-04-25T06:41:02;6.35;;;5.75;;
25129;SDS011;13308;50.860;13.664;2023-04-25T06:43:33;7.75;;;5.22;;
25129;SDS011;13308;50.860;13.664;2023-04-25T06:46:12;5.32;;;4.82;;
25129;SDS011;13308;50.860;13.664;2023-04-25T06:48:42;5.60;;;5.03;;
25129;SDS011;13308;50.860;13.664;2023-04-25T06:51:08;6.20;;;5.40;;
25129;SDS011;13308;50.860;13.664;2023-04-25T06:53:35;9.43;;;4.80;;
25129;SDS011;13308;50.860;13.664;2023-04-25T06:56:03;8.15;;;6.18;;
25129;SDS011;13308;50.860;13.664;2023-04-25T06:58:39;8.15;;;5.60;;
25129;SDS011;13308;50.860;13.664;2023-04-25T07:01:34;9.60;;;5.68;;
25129;SDS011;13308;50.860;13.664;2023-04-25T07:04:03;6.55;;;5.95;;
25129;SDS011;13308;50.860;13.664;2023-04-25T07:06:31;8.43;;;4.55;;
25129;SDS011;13308;50.860;13.664;2023-04-25T07:08:56;8.32;;;5.25;;
25129;SDS011;13308;50.860;13.664;2023-04-25T07:11:22;7.32;;;4.45;;
25129;SDS011;13308;50.860;13.664;2023-04-25T07:13:48;6.22;;;4.97;;
25129;SDS011;13308;50.860;13.664;2023-04-25T07:16:13;7.20;;;4.70;;
25129;SDS011;13308;50.860;13.664;2023-04-25T07:18:39;9.10;;;5.38;;
25129;SDS011;13308;50.860;13.664;2023-04-25T07:21:05;15.13;;;9.27;;
25129;SDS011;13308;50.860;13.664;2023-04-25T07:23:32;6.55;;;5.00;;
25129;SDS011;13308;50.860;13.664;2023-04-25T07:26:01;6.15;;;4.90;;
25129;SDS011;13308;50.860;13.664;2023-04-25T07:28:28;6.50;;;4.68;;
25129;SDS011;13308;50.860;13.664;2023-04-25T07:30:53;11.50;;;5.57;;
25129;SDS011;13308;50.860;13.664;2023-04-25T07:33:18;5.78;;;5.13;;
25129;SDS011;13308;50.860;13.664;2023-04-25T07:35:45;6.93;;;5.20;;
25129;SDS011;13308;50.860;13.664;2023-04-25T07:38:10;6.60;;;5.25;;
25129;SDS011;13308;50.860;13.664;2023-04-25T07:40:36;5.85;;;4.88;;
25129;SDS011;13308;50.860;13.664;2023-04-25T07:43:05;6.45;;;5.00;;
25129;SDS011;13308;50.860;13.664;2023-04-25T07:45:52;6.65;;;4.53;;
25129;SDS011;13308;50.860;13.664;2023-04-25T07:48:19;7.43;;;5.13;;
25129;SDS011;13308;50.860;13.664;2023-04-25T07:50:45;7.15;;;5.32;;
25129;SDS011;13308;50.860;13.664;2023-04-25T07:53:11;5.85;;;4.78;;
25129;SDS011;13308;50.860;13.664;2023-04-25T07:55:43;5.47;;;4.95;;
25129;SDS011;13308;50.860;13.664;2023-04-25T07:58:14;5.53;;;5.00;;
25129;SDS011;13308;50.860;13.664;2023-04-25T08:00:42;11.52;;;8.02;;
25129;SDS011;13308;50.860;13.664;2023-04-25T08:03:26;6.25;;;5.07;;
25129;SDS011;13308;50.860;13.664;2023-04-25T08:05:53;6.70;;;5.00;;
25129;SDS011;13308;50.860;13.664;2023-04-25T08:08:18;10.73;;;5.28;;
25129;SDS011;13308;50.860;13.664;2023-04-25T08:10:44;7.03;;;4.95;;
25129;SDS011;13308;50.860;13.664;2023-04-25T08:13:11;5.47;;;4.80;;
25129;SDS011;13308;50.860;13.664;2023-04-25T08:15:36;4.35;;;3.95;;
25129;SDS011;13308;50.860;13.664;2023-04-25T08:18:02;5.20;;;4.70;;
25129;SDS011;13308;50.860;13.664;2023-04-25T08:20:29;5.57;;;4.00;;
25129;SDS011;13308;50.860;13.664;2023-04-25T08:22:56;4.70;;;4.28;;
25129;SDS011;13308;50.860;13.664;2023-04-25T08:25:31;5.38;;;4.05;;
25129;SDS011;13308;50.860;13.664;2023-04-25T08:27:57;5.82;;;3.80;;
25129;SDS011;13308;50.860;13.664;2023-04-25T08:30:24;3.50;;;3.13;;
25129;SDS011;13308;50.860;13.664;2023-04-25T08:32:50;4.18;;;3.78;;
25129;SDS011;13308;50.860;13.664;2023-04-25T08:35:42;5.00;;;4.00;;
25129;SDS011;13308;50.860;13.664;2023-04-25T08:38:09;5.05;;;4.53;;
25129;SDS011;13308;50.860;13.664;2023-04-25T08:40:35;7.78;;;3.42;;
25129;SDS011;13308;50.860;13.664;2023-04-25T08:43:07;4.45;;;4.03;;
25129;SDS011;13308;50.860;13.664;2023-04-25T08:45:39;4.85;;;4.28;;
25129;SDS011;13308;50.860;13.664;2023-04-25T08:48:13;4.57;;;3.90;;
25129;SDS011;13308;50.860;13.664;2023-04-25T08:50:45;11.65;;;3.92;;
25129;SDS011;13308;50.860;13.664;2023-04-25T08:53:37;12.60;;;10.65;;
25129;SDS011;13308;50.860;13.664;2023-04-25T08:56:04;4.63;;;4.20;;
25129;SDS011;13308;50.860;13.664;2023-04-25T08:58:34;6.78;;;4.30;;
25129;SDS011;13308;50.860;13.664;2023-04-25T09:01:01;5.53;;;4.43;;
25129;SDS011;13308;50.860;13.664;2023-04-25T09:03:31;8.52;;;4.95;;
25129;SDS011;13308;50.860;13.664;2023-04-25T09:05:56;7.57;;;4.40;;
25129;SDS011;13308;50.860;13.664;2023-04-25T09:08:23;7.05;;;3.90;;
25129;SDS011;13308;50.860;13.664;2023-04-25T09:10:48;4.57;;;4.15;;
25129;SDS011;13308;50.860;13.664;2023-04-25T09:13:14;6.10;;;4.85;;
25129;SDS011;13308;50.860;13.664;2023-04-25T09:16:01;9.57;;;4.88;;
25129;SDS011;13308;50.860;13.664;2023-04-25T09:18:37;6.55;;;4.85;;
25129;SDS011;13308;50.860;13.664;2023-04-25T09:21:10;7.22;;;5.07;;
25129;SDS011;13308;50.860;13.664;2023-04-25T09:23:47;6.32;;;5.70;;
25129;SDS011;13308;50.860;13.664;2023-04-25T09:26:17;7.95;;;5.45;;
25129;SDS011;13308;50.860;13.664;2023-04-25T09:28:47;6.50;;;4.22;;
25129;SDS011;13308;50.860;13.664;2023-04-25T09:31:24;8.45;;;6.47;;
25129;SDS011;13308;50.860;13.664;2023-04-25T09:33:58;5.80;;;4.97;;
25129;SDS011;13308;50.860;13.664;2023-04-25T09:36:26;4.90;;;4.43;;
25129;SDS011;13308;50.860;13.664;2023-04-25T09:39:18;8.52;;;4.85;;
25129;SDS011;13308;50.860;13.664;2023-04-25T09:41:54;11.13;;;6.15;;
25129;SDS011;13308;50.860;13.664;2023-04-25T09:44:23;14.40;;;6.22;;
25129;SDS011;13308;50.860;13.664;2023-04-25T09:46:50;5.68;;;4.32;;
25129;SDS011;13308;50.860;13.664;2023-04-25T09:49:20;4.47;;;4.05;;
25129;SDS011;13308;50.860;13.664;2023-04-25T09:52:06;4.25;;;3.85;;
25129;SDS011;13308;50.860;13.664;2023-04-25T09:54:38;6.70;;;4.38;;
25129;SDS011;13308;50.860;13.664;2023-04-25T09:57:10;7.60;;;4.72;;
25129;SDS011;13308;50.860;13.664;2023-04-25T09:59:44;9.98;;;7.43;;
25129;SDS011;13308;50.860;13.664;2023-04-25T10:02:13;5.60;;;4.03;;
25129;SDS011;13308;50.860;13.664;2023-04-25T10:04:40;8.43;;;4.63;;
25129;SDS011;13308;50.860;13.664;2023-04-25T10:07:22;5.50;;;4.13;;
25129;SDS011;13308;50.860;13.664;2023-04-25T10:09:51;8.10;;;4.38;;
25129;SDS011;13308;50.860;13.664;2023-04-25T10:12:28;5.07;;;4.55;;
25129;SDS011;13308;50.860;13.664;2023-04-25T10:14:56;7.57;;;5.18;;
25129;SDS011;13308;50.860;13.664;2023-04-25T10:17:23;4.40;;;4.00;;
25129;SDS011;13308;50.860;13.664;2023-04-25T10:19:48;5.15;;;4.68;;
25129;SDS011;13308;50.860;13.664;2023-04-25T10:22:17;7.30;;;4.40;;
25129;SDS011;13308;50.860;13.664;2023-04-25T10:24:48;9.55;;;4.80;;
25129;SDS011;13308;50.860;13.664;2023-04-25T10:27:14;6.07;;;5.03;;
25129;SDS011;13308;50.860;13.664;2023-04-25T10:29:40;5.25;;;4.55;;
25129;SDS011;13308;50.860;13.664;2023-04-25T10:32:07;7.07;;;5.00;;
25129;SDS011;13308;50.860;13.664;2023-04-25T10:34:39;5.68;;;4.78;;
25129;SDS011;13308;50.860;13.664;2023-04-25T10:37:08;6.10;;;5.30;;
25129;SDS011;13308;50.860;13.664;2023-04-25T10:39:34;6.43;;;5.72;;
25129;SDS011;13308;50.860;13.664;2023-04-25T10:42:01;7.63;;;5.25;;
25129;SDS011;13308;50.860;13.664;2023-04-25T10:44:27;5.63;;;5.10;;
25129;SDS011;13308;50.860;13.664;2023-04-25T10:47:00;5.35;;;4.85;;
25129;SDS011;13308;50.860;13.664;2023-04-25T10:49:30;7.00;;;6.30;;
25129;SDS011;13308;50.860;13.664;2023-04-25T10:54:46;6.15;;;5.13;;
25129;SDS011;13308;50.860;13.664;2023-04-25T11:00:00;7.35;;;5.28;;
25129;SDS011;13308;50.860;13.664;2023-04-25T11:02:31;10.73;;;5.88;;
25129;SDS011;13308;50.860;13.664;2023-04-25T11:04:57;5.13;;;4.63;;
25129;SDS011;13308;50.860;13.664;2023-04-25T11:07:28;6.90;;;4.90;;
25129;SDS011;13308;50.860;13.664;2023-04-25T11:10:03;7.40;;;5.28;;
25129;SDS011;13308;50.860;13.664;2023-04-25T11:12:30;7.78;;;5.18;;
25129;SDS011;13308;50.860;13.664;2023-04-25T11:15:03;6.03;;;5.32;;
25129;SDS011;13308;50.860;13.664;2023-04-25T11:17:30;7.40;;;5.40;;
25129;SDS011;13308;50.860;13.664;2023-04-25T11:19:56;8.82;;;5.82;;
25129;SDS011;13308;50.860;13.664;2023-04-25T11:22:22;6.22;;;4.72;;
25129;SDS011;13308;50.860;13.664;2023-04-25T11:24:47;5.95;;;5.35;;
25129;SDS011;13308;50.860;13.664;2023-04-25T11:27:13;5.32;;;4.88;;
25129;SDS011;13308;50.860;13.664;2023-04-25T11:29:39;6.30;;;5.65;;
25129;SDS011;13308;50.860;13.664;2023-04-25T11:32:06;7.82;;;6.75;;
25129;SDS011;13308;50.860;13.664;2023-04-25T11:34:31;7.60;;;6.53;;
25129;SDS011;13308;50.860;13.664;2023-04-25T11:36:58;8.85;;;6.38;;
25129;SDS011;13308;50.860;13.664;2023-04-25T11:39:25;11.07;;;6.88;;
25129;SDS011;13308;50.860;13.664;2023-04-25T11:41:51;8.48;;;7.15;;
25129;SDS011;13308;50.860;13.664;2023-04-25T11:44:18;8.73;;;7.82;;
25129;SDS011;13308;50.860;13.664;2023-04-25T11:46:44;14.70;;;8.75;;
25129;SDS011;13308;50.860;13.664;2023-04-25T11:49:10;14.63;;;9.02;;
25129;SDS011;13308;50.860;13.664;2023-04-25T11:51:42;13.50;;;9.35;;
25129;SDS011;13308;50.860;13.664;2023-04-25T11:54:09;17.05;;;10.52;;
25129;SDS011;13308;50.860;13.664;2023-04-25T11:56:35;15.32;;;10.13;;
25129;SDS011;13308;50.860;13.664;2023-04-25T11:59:01;16.60;;;10.88;;
25129;SDS011;13308;50.860;13.664;2023-04-25T12:01:29;16.17;;;9.35;;
25129;SDS011;13308;50.860;13.664;2023-04-25T12:03:56;15.40;;;9.32;;
25129;SDS011;13308;50.860;13.664;2023-04-25T12:06:25;16.67;;;9.20;;
25129;SDS011;13308;50.860;13.664;2023-04-25T12:09:02;10.07;;;7.78;;
25129;SDS011;13308;50.860;13.664;2023-04-25T12:11:32;13.40;;;8.13;;
25129;SDS011;13308;50.860;13.664;2023-04-25T12:14:03;9.68;;;6.68;;
25129;SDS011;13308;50.860;13.664;2023-04-25T12:16:30;8.38;;;5.70;;
25129;SDS011;13308;50.860;13.664;2023-04-25T12:19:05;6.82;;;4.68;;
25129;SDS011;13308;50.860;13.664;2023-04-25T12:21:30;9.20;;;5.47;;
25129;SDS011;13308;50.860;13.664;2023-04-25T12:24:07;5.18;;;4.13;;
25129;SDS011;13308;50.860;13.664;2023-04-25T12:26:49;8.05;;;4.18;;
25129;SDS011;13308;50.860;13.664;2023-04-25T12:29:20;5.78;;;3.78;;
25129;SDS011;13308;50.860;13.664;2023-04-25T12:31:48;4.95;;;3.88;;
25129;SDS011;13308;50.860;13.664;2023-04-25T12:34:14;6.32;;;3.28;;
25129;SDS011;13308;50.860;13.664;2023-04-25T12:36:39;8.02;;;3.15;;
25129;SDS011;13308;50.860;13.664;2023-04-25T12:39:05;6.25;;;2.95;;
25129;SDS011;13308;50.860;13.664;2023-04-25T12:41:31;3.10;;;2.75;;
25129;SDS011;13308;50.860;13.664;2023-04-25T12:43:57;7.82;;;3.50;;
25129;SDS011;13308;50.860;13.664;2023-04-25T12:46:22;4.95;;;3.00;;
25129;SDS011;13308;50.860;13.664;2023-04-25T12:48:50;7.18;;;3.35;;
25129;SDS011;13308;50.860;13.664;2023-04-25T12:51:16;5.07;;;3.17;;
25129;SDS011;13308;50.860;13.664;2023-04-25T12:53:41;6.60;;;3.53;;
25129;SDS011;13308;50.860;13.664;2023-04-25T12:56:07;6.25;;;3.53;;
25129;SDS011;13308;50.860;13.664;2023-04-25T12:58:33;4.30;;;3.00;;
25129;SDS011;13308;50.860;13.664;2023-04-25T13:00:58;6.22;;;3.53;;
25129;SDS011;13308;50.860;13.664;2023-04-25T13:03:24;7.10;;;3.80;;
25129;SDS011;13308;50.860;13.664;2023-04-25T13:05:50;9.43;;;3.55;;
25129;SDS011;13308;50.860;13.664;2023-04-25T13:08:17;6.03;;;3.78;;
25129;SDS011;13308;50.860;13.664;2023-04-25T13:10:43;9.63;;;3.70;;
25129;SDS011;13308;50.860;13.664;2023-04-25T13:13:08;6.10;;;3.53;;
25129;SDS011;13308;50.860;13.664;2023-04-25T13:15:33;4.90;;;3.70;;
25129;SDS011;13308;50.860;13.664;2023-04-25T13:17:59;4.75;;;3.75;;
25129;SDS011;13308;50.860;13.664;2023-04-25T13:20:24;6.13;;;3.85;;
25129;SDS011;13308;50.860;13.664;2023-04-25T13:22:49;4.97;;;3.83;;
25129;SDS011;13308;50.860;13.664;2023-04-25T13:25:15;12.23;;;3.60;;
25129;SDS011;13308;50.860;13.664;2023-04-25T13:27:41;7.57;;;4.20;;
25129;SDS011;13308;50.860;13.664;2023-04-25T13:30:09;8.50;;;4.00;;
25129;SDS011;13308;50.860;13.664;2023-04-25T13:32:35;5.20;;;3.67;;
25129;SDS011;13308;50.860;13.664;2023-04-25T13:35:01;7.30;;;4.32;;
25129;SDS011;13308;50.860;13.664;2023-04-25T13:37:31;6.20;;;4.18;;
25129;SDS011;13308;50.860;13.664;2023-04-25T13:39:58;7.38;;;4.22;;
25129;SDS011;13308;50.860;13.664;2023-04-25T13:42:25;6.35;;;3.95;;
25129;SDS011;13308;50.860;13.664;2023-04-25T13:44:50;11.18;;;4.15;;
25129;SDS011;13308;50.860;13.664;2023-04-25T13:47:16;7.65;;;4.22;;
25129;SDS011;13308;50.860;13.664;2023-04-25T13:49:41;8.80;;;4.03;;
25129;SDS011;13308;50.860;13.664;2023-04-25T13:52:06;9.82;;;4.00;;
25129;SDS011;13308;50.860;13.664;2023-04-25T13:54:32;5.05;;;3.78;;
25129;SDS011;13308;50.860;13.664;2023-04-25T13:56:58;8.43;;;4.07;;
25129;SDS011;13308;50.860;13.664;2023-04-25T13:59:24;12.35;;;4.22;;
25129;SDS011;13308;50.860;13.664;2023-04-25T14:01:50;7.00;;;4.75;;
25129;SDS011;13308;50.860;13.664;2023-04-25T14:04:16;8.35;;;4.70;;
25129;SDS011;13308;50.860;13.664;2023-04-25T14:06:41;7.13;;;4.82;;
25129;SDS011;13308;50.860;13.664;2023-04-25T14:09:07;10.50;;;4.80;;
25129;SDS011;13308;50.860;13.664;2023-04-25T14:11:35;10.70;;;5.50;;
25129;SDS011;13308;50.860;13.664;2023-04-25T14:14:01;8.10;;;4.60;;
25129;SDS011;13308;50.860;13.664;2023-04-25T14:16:26;6.13;;;4.15;;
25129;SDS011;13308;50.860;13.664;2023-04-25T14:18:52;7.13;;;4.57;;
25129;SDS011;13308;50.860;13.664;2023-04-25T14:21:17;8.70;;;5.00;;
25129;SDS011;13308;50.860;13.664;2023-04-25T14:23:42;11.68;;;4.85;;
25129;SDS011;13308;50.860;13.664;2023-04-25T14:26:08;10.95;;;5.45;;
25129;SDS011;13308;50.860;13.664;2023-04-25T14:28:37;8.82;;;4.70;;
25129;SDS011;13308;50.860;13.664;2023-04-25T14:31:02;8.25;;;4.63;;
25129;SDS011;13308;50.860;13.664;2023-04-25T14:33:27;9.15;;;4.80;;
25129;SDS011;13308;50.860;13.664;2023-04-25T14:35:53;6.38;;;5.22;;
25129;SDS011;13308;50.860;13.664;2023-04-25T14:38:18;10.40;;;5.10;;
25129;SDS011;13308;50.860;13.664;2023-04-25T14:40:48;12.52;;;6.50;;
25129;SDS011;13308;50.860;13.664;2023-04-25T14:43:13;12.13;;;5.82;;
25129;SDS011;13308;50.860;13.664;2023-04-25T14:45:39;11.57;;;5.40;;
25129;SDS011;13308;50.860;13.664;2023-04-25T14:48:04;10.40;;;5.97;;
25129;SDS011;13308;50.860;13.664;2023-04-25T14:50:29;13.90;;;5.57;;
25129;SDS011;13308;50.860;13.664;2023-04-25T14:52:55;14.90;;;7.20;;
25129;SDS011;13308;50.860;13.664;2023-04-25T14:55:23;16.88;;;6.70;;
25129;SDS011;13308;50.860;13.664;2023-04-25T14:57:49;8.52;;;6.15;;
25129;SDS011;13308;50.860;13.664;2023-04-25T15:00:14;16.15;;;5.95;;
25129;SDS011;13308;50.860;13.664;2023-04-25T15:02:41;11.07;;;6.57;;
25129;SDS011;13308;50.860;13.664;2023-04-25T15:05:07;8.60;;;5.90;;
25129;SDS011;13308;50.860;13.664;2023-04-25T15:07:33;7.53;;;5.47;;
25129;SDS011;13308;50.860;13.664;2023-04-25T15:10:00;12.18;;;5.53;;
25129;SDS011;13308;50.860;13.664;2023-04-25T15:12:25;14.73;;;5.65;;
25129;SDS011;13308;50.860;13.664;2023-04-25T15:14:53;10.57;;;5.47;;
25129;SDS011;13308;50.860;13.664;2023-04-25T15:17:19;10.63;;;6.03;;
25129;SDS011;13308;50.860;13.664;2023-04-25T15:19:44;12.65;;;5.43;;
25129;SDS011;13308;50.860;13.664;2023-04-25T15:22:09;10.52;;;5.43;;
25129;SDS011;13308;50.860;13.664;2023-04-25T15:24:35;12.43;;;5.75;;
25129;SDS011;13308;50.860;13.664;2023-04-25T15:27:00;13.07;;;6.40;;
25129;SDS011;13308;50.860;13.664;2023-04-25T15:29:26;15.93;;;6.47;;
25129;SDS011;13308;50.860;13.664;2023-04-25T15:31:52;11.00;;;6.05;;
25129;SDS011;13308;50.860;13.664;2023-04-25T15:34:17;15.52;;;6.90;;
25129;SDS011;13308;50.860;13.664;2023-04-25T15:36:42;18.02;;;6.55;;
25129;SDS011;13308;50.860;13.664;2023-04-25T15:39:08;9.43;;;5.82;;
25129;SDS011;13308;50.860;13.664;2023-04-25T15:41:33;8.52;;;4.60;;
25129;SDS011;13308;50.860;13.664;2023-04-25T15:43:59;8.73;;;4.10;;
25129;SDS011;13308;50.860;13.664;2023-04-25T15:46:25;4.38;;;2.80;;
25129;SDS011;13308;50.860;13.664;2023-04-25T15:48:51;9.48;;;3.70;;
25129;SDS011;13308;50.860;13.664;2023-04-25T15:51:16;3.40;;;2.83;;
25129;SDS011;13308;50.860;13.664;2023-04-25T15:53:42;5.60;;;2.72;;
25129;SDS011;13308;50.860;13.664;2023-04-25T15:56:07;4.88;;;2.90;;
25129;SDS011;13308;50.860;13.664;2023-04-25T15:58:32;5.13;;;3.15;;
25129;SDS011;13308;50.860;13.664;2023-04-25T16:00:58;5.68;;;2.85;;
25129;SDS011;13308;50.860;13.664;2023-04-25T16:03:23;8.50;;;2.97;;
25129;SDS011;13308;50.860;13.664;2023-04-25T16:05:48;6.75;;;2.72;;
25129;SDS011;13308;50.860;13.664;2023-04-25T16:08:14;6.75;;;2.53;;
25129;SDS011;13308;50.860;13.664;2023-04-25T16:10:39;8.88;;;2.85;;
25129;SDS011;13308;50.860;13.664;2023-04-25T16:13:05;7.53;;;2.30;;
25129;SDS011;13308;50.860;13.664;2023-04-25T16:15:30;6.28;;;2.47;;
25129;SDS011;13308;50.860;13.664;2023-04-25T16:17:56;11.15;;;2.80;;
25129;SDS011;13308;50.860;13.664;2023-04-25T16:20:21;10.48;;;2.30;;
25129;SDS011;13308;50.860;13.664;2023-04-25T16:22:47;4.15;;;2.35;;
25129;SDS011;13308;50.860;13.664;2023-04-25T16:25:12;4.53;;;2.45;;
25129;SDS011;13308;50.860;13.664;2023-04-25T16:27:37;7.30;;;3.95;;
25129;SDS011;13308;50.860;13.664;2023-04-25T16:30:04;9.48;;;5.47;;
25129;SDS011;13308;50.860;13.664;2023-04-25T16:32:32;11.38;;;5.00;;
25129;SDS011;13308;50.860;13.664;2023-04-25T16:34:57;5.47;;;3.60;;
25129;SDS011;13308;50.860;13.664;2023-04-25T16:37:23;9.02;;;3.63;;
25129;SDS011;13308;50.860;13.664;2023-04-25T16:39:48;6.15;;;2.65;;
25129;SDS011;13308;50.860;13.664;2023-04-25T16:42:14;9.90;;;2.70;;
25129;SDS011;13308;50.860;13.664;2023-04-25T16:44:39;11.60;;;2.70;;
25129;SDS011;13308;50.860;13.664;2023-04-25T16:47:05;3.60;;;2.33;;
25129;SDS011;13308;50.860;13.664;2023-04-25T16:49:30;3.65;;;2.13;;
25129;SDS011;13308;50.860;13.664;2023-04-25T16:51:56;3.92;;;2.50;;
25129;SDS011;13308;50.860;13.664;2023-04-25T16:54:21;10.43;;;2.88;;
25129;SDS011;13308;50.860;13.664;2023-04-25T16:56:49;5.70;;;2.85;;
25129;SDS011;13308;50.860;13.664;2023-04-25T16:59:14;4.22;;;2.00;;
25129;SDS011;13308;50.860;13.664;2023-04-25T17:01:40;7.72;;;2.75;;
25129;SDS011;13308;50.860;13.664;2023-04-25T17:04:05;5.68;;;2.78;;
25129;SDS011;13308;50.860;13.664;2023-04-25T17:06:31;9.85;;;4.82;;
25129;SDS011;13308;50.860;13.664;2023-04-25T17:08:56;5.88;;;3.40;;
25129;SDS011;13308;50.860;13.664;2023-04-25T17:11:22;4.07;;;2.55;;
25129;SDS011;13308;50.860;13.664;2023-04-25T17:13:47;6.90;;;3.05;;
25129;SDS011;13308;50.860;13.664;2023-04-25T17:16:12;5.82;;;3.67;;
25129;SDS011;13308;50.860;13.664;2023-04-25T17:18:41;4.63;;;2.28;;
25129;SDS011;13308;50.860;13.664;2023-04-25T17:21:07;5.55;;;2.58;;
25129;SDS011;13308;50.860;13.664;2023-04-25T17:23:33;5.65;;;2.28;;
25129;SDS011;13308;50.860;13.664;2023-04-25T17:25:59;3.58;;;2.65;;
25129;SDS011;13308;50.860;13.664;2023-04-25T17:28:25;7.72;;;2.42;;
25129;SDS011;13308;50.860;13.664;2023-04-25T17:30:50;4.75;;;2.42;;
25129;SDS011;13308;50.860;13.664;2023-04-25T17:33:15;7.45;;;2.65;;
25129;SDS011;13308;50.860;13.664;2023-04-25T17:35:41;3.00;;;2.28;;
25129;SDS011;13308;50.860;13.664;2023-04-25T17:38:06;3.33;;;2.13;;
25129;SDS011;13308;50.860;13.664;2023-04-25T17:40:31;6.95;;;1.98;;
25129;SDS011;13308;50.860;13.664;2023-04-25T17:42:57;4.15;;;2.30;;
25129;SDS011;13308;50.860;13.664;2023-04-25T17:45:22;3.03;;;2.40;;
25129;SDS011;13308;50.860;13.664;2023-04-25T17:47:47;2.92;;;2.17;;
25129;SDS011;13308;50.860;13.664;2023-04-25T17:50:13;4.57;;;2.47;;
25129;SDS011;13308;50.860;13.664;2023-04-25T17:52:40;5.70;;;1.92;;
25129;SDS011;13308;50.860;13.664;2023-04-25T17:55:07;4.43;;;2.70;;
25129;SDS011;13308;50.860;13.664;2023-04-25T17:57:33;2.80;;;2.60;;
25129;SDS011;13308;50.860;13.664;2023-04-25T17:59:58;7.22;;;1.90;;
25129;SDS011;13308;50.860;13.664;2023-04-25T18:02:23;2.33;;;2.13;;
25129;SDS011;13308;50.860;13.664;2023-04-25T18:04:49;6.32;;;2.30;;
25129;SDS011;13308;50.860;13.664;2023-04-25T18:07:14;6.85;;;2.30;;
25129;SDS011;13308;50.860;13.664;2023-04-25T18:09:40;4.68;;;2.35;;
25129;SDS011;13308;50.860;13.664;2023-04-25T18:12:05;7.00;;;4.40;;
25129;SDS011;13308;50.860;13.664;2023-04-25T18:14:32;5.53;;;3.08;;
25129;SDS011;13308;50.860;13.664;2023-04-25T18:16:58;5.20;;;2.65;;
25129;SDS011;13308;50.860;13.664;2023-04-25T18:19:24;8.75;;;2.15;;
25129;SDS011;13308;50.860;13.664;2023-04-25T18:21:50;4.72;;;2.78;;
25129;SDS011;13308;50.860;13.664;2023-04-25T18:24:18;7.60;;;2.67;;
25129;SDS011;13308;50.860;13.664;2023-04-25T18:26:45;7.97;;;4.60;;
25129;SDS011;13308;50.860;13.664;2023-04-25T18:29:16;5.63;;;3.65;;
25129;SDS011;13308;50.860;13.664;2023-04-25T18:31:42;3.75;;;3.28;;
25129;SDS011;13308;50.860;13.664;2023-04-25T18:34:08;7.75;;;2.90;;
25129;SDS011;13308;50.860;13.664;2023-04-25T18:40:06;4.07;;;2.30;;
